createdAt,value
2017-11-26T00:01:32.063Z,38.23
2017-11-26T00:03:58.916Z,38.20
2017-11-26T00:06:25.793Z,42.93
2017-11-26T00:08:52.670Z,41.50
2017-11-26T00:11:19.538Z,39.00
2017-11-26T00:13:46.384Z,45.83
2017-11-26T00:16:13.272Z,38.57
2017-11-26T00:18:40.146Z,42.17
2017-11-26T00:21:07.009Z,42.93
2017-11-26T00:23:33.893Z,41.00
2017-11-26T00:26:00.732Z,39.15
2017-11-26T00:28:27.602Z,46.37
2017-11-26T00:30:54.444Z,43.20
2017-11-26T00:33:21.593Z,39.08
2017-11-26T00:35:48.448Z,46.63
2017-11-26T00:38:15.591Z,48.72
2017-11-26T00:40:42.736Z,41.17
2017-11-26T00:43:09.584Z,45.90
2017-11-26T00:45:36.728Z,41.72
2017-11-26T00:48:03.556Z,39.75
2017-11-26T00:50:30.372Z,43.05
2017-11-26T00:52:57.251Z,42.28
2017-11-26T00:55:24.304Z,41.08
2017-11-26T00:57:51.164Z,36.73
2017-11-26T01:00:18.007Z,39.03
2017-11-26T01:02:45.306Z,35.87
2017-11-26T01:05:12.404Z,37.08
2017-11-26T01:07:39.287Z,33.08
2017-11-26T01:10:06.141Z,35.72
2017-11-26T01:12:33.033Z,37.58
2017-11-26T01:14:59.891Z,39.25
2017-11-26T01:17:27.025Z,34.95
2017-11-26T01:19:53.883Z,39.28
2017-11-26T01:22:20.740Z,35.03
2017-11-26T01:24:47.610Z,36.13
2017-11-26T01:27:14.706Z,33.75
2017-11-26T01:29:41.602Z,37.17
2017-11-26T01:32:08.702Z,37.53
2017-11-26T01:34:35.850Z,44.60
2017-11-26T01:37:02.730Z,36.92
2017-11-26T01:39:29.548Z,36.13
2017-11-26T01:41:56.694Z,38.85
2017-11-26T01:44:23.580Z,34.83
2017-11-26T01:46:50.447Z,40.40
2017-11-26T01:49:17.554Z,38.80
2017-11-26T01:51:44.413Z,35.42
2017-11-26T01:54:11.299Z,37.42
2017-11-26T01:56:38.457Z,38.92
2017-11-26T01:59:05.303Z,47.00
2017-11-26T02:01:32.204Z,39.22
2017-11-26T02:03:59.070Z,43.55
2017-11-26T02:06:25.940Z,41.63
2017-11-26T02:08:53.087Z,36.08
2017-11-26T02:11:19.928Z,39.15
2017-11-26T02:13:47.084Z,38.80
2017-11-26T02:16:13.974Z,37.00
2017-11-26T02:18:40.846Z,36.38
2017-11-26T02:21:08.016Z,45.97
2017-11-26T02:23:34.897Z,39.65
2017-11-26T02:26:01.778Z,41.83
2017-11-26T02:28:28.778Z,38.60
2017-11-26T02:30:55.636Z,40.45
2017-11-26T02:33:28.790Z,39.58
2017-11-26T02:36:12.298Z,37.03
2017-11-26T02:38:39.208Z,36.75
2017-11-26T02:41:06.099Z,41.55
2017-11-26T02:43:32.995Z,39.83
2017-11-26T02:45:59.951Z,45.60
2017-11-26T02:48:26.804Z,37.38
2017-11-26T02:50:53.699Z,41.22
2017-11-26T02:53:20.836Z,36.00
2017-11-26T02:55:47.709Z,35.88
2017-11-26T02:58:14.598Z,39.35
2017-11-26T03:00:41.512Z,40.17
2017-11-26T03:03:08.375Z,40.35
2017-11-26T03:05:35.238Z,39.80
2017-11-26T03:08:02.148Z,40.67
2017-11-26T03:10:29.253Z,37.65
2017-11-26T03:12:56.096Z,40.03
2017-11-26T03:15:22.969Z,33.43
2017-11-26T03:17:49.852Z,35.23
2017-11-26T03:20:17.032Z,35.87
2017-11-26T03:22:44.180Z,34.65
2017-11-26T03:25:11.066Z,35.75
2017-11-26T03:27:38.182Z,38.42
2017-11-26T03:30:05.326Z,34.55
2017-11-26T03:32:32.153Z,34.97
2017-11-26T03:34:58.993Z,36.28
2017-11-26T03:37:25.832Z,33.78
2017-11-26T03:39:52.690Z,35.88
2017-11-26T03:42:19.540Z,34.63
2017-11-26T03:44:46.697Z,32.60
2017-11-26T03:47:13.520Z,37.38
2017-11-26T03:49:40.360Z,34.05
2017-11-26T03:52:07.208Z,33.10
2017-11-26T03:54:34.040Z,38.53
2017-11-26T03:57:01.236Z,31.75
2017-11-26T03:59:28.097Z,36.43
2017-11-26T04:01:54.946Z,36.63
2017-11-26T04:04:21.801Z,35.10
2017-11-26T04:06:48.690Z,36.92
2017-11-26T04:09:15.841Z,33.65
2017-11-26T04:11:42.661Z,35.73
2017-11-26T04:14:09.554Z,32.83
2017-11-26T04:16:36.434Z,32.20
2017-11-26T04:19:03.342Z,29.10
2017-11-26T04:21:30.237Z,33.07
2017-11-26T04:23:57.081Z,34.40
2017-11-26T04:26:24.258Z,35.00
2017-11-26T04:28:51.149Z,32.30
2017-11-26T04:31:18.014Z,30.75
2017-11-26T04:33:44.835Z,33.95
2017-11-26T04:36:11.933Z,33.53
2017-11-26T04:38:39.090Z,34.00
2017-11-26T04:41:06.202Z,28.12
2017-11-26T04:43:33.084Z,32.65
2017-11-26T04:46:00.228Z,35.25
2017-11-26T04:48:27.138Z,38.47
2017-11-26T04:50:53.983Z,34.40
2017-11-26T04:53:20.808Z,34.87
2017-11-26T04:55:47.662Z,32.30
2017-11-26T04:58:14.753Z,33.90
2017-11-26T05:00:41.587Z,30.33
2017-11-26T05:03:08.502Z,33.85
2017-11-26T05:05:35.398Z,29.65
2017-11-26T05:08:02.289Z,30.75
2017-11-26T05:10:29.148Z,32.33
2017-11-26T05:12:56.327Z,33.15
2017-11-26T05:15:23.177Z,30.55
2017-11-26T05:17:50.035Z,32.35
2017-11-26T05:20:16.882Z,29.10
2017-11-26T05:22:43.712Z,30.55
2017-11-26T05:25:10.574Z,34.83
2017-11-26T05:27:37.473Z,32.33
2017-11-26T05:30:04.369Z,29.67
2017-11-26T05:32:31.235Z,31.70
2017-11-26T05:34:58.138Z,35.90
2017-11-26T05:37:25.003Z,28.02
2017-11-26T05:39:51.849Z,32.90
2017-11-26T05:42:18.735Z,31.85
2017-11-26T05:44:45.573Z,31.50
2017-11-26T05:47:12.748Z,28.33
2017-11-26T05:49:39.626Z,31.62
2017-11-26T05:52:06.464Z,31.05
2017-11-26T05:54:33.346Z,28.02
2017-11-26T05:57:00.527Z,30.75
2017-11-26T05:59:27.409Z,28.20
2017-11-26T06:01:54.266Z,27.25
2017-11-26T06:04:21.469Z,29.05
2017-11-26T06:06:48.616Z,27.98
2017-11-26T06:09:15.482Z,28.25
2017-11-26T06:11:42.387Z,30.67
2017-11-26T06:14:09.233Z,38.75
2017-11-26T06:16:36.100Z,28.03
2017-11-26T06:19:02.998Z,29.33
2017-11-26T06:21:29.858Z,33.17
2017-11-26T06:23:56.680Z,27.43
2017-11-26T06:26:23.529Z,23.80
2017-11-26T06:28:50.391Z,23.87
2017-11-26T06:31:17.254Z,27.73
2017-11-26T06:33:44.397Z,24.73
2017-11-26T06:36:11.266Z,25.65
2017-11-26T06:38:38.088Z,26.42
2017-11-26T06:41:05.236Z,26.07
2017-11-26T06:43:32.390Z,24.15
2017-11-26T06:45:59.262Z,27.40
2017-11-26T06:48:26.133Z,22.98
2017-11-26T06:50:53.007Z,24.00
2017-11-26T06:53:20.269Z,21.52
2017-11-26T06:55:47.165Z,21.98
2017-11-26T06:58:14.271Z,24.08
2017-11-26T07:00:41.101Z,24.83
2017-11-26T07:03:08.264Z,22.10
2017-11-26T07:05:35.142Z,24.80
2017-11-26T07:08:02.028Z,25.25
2017-11-26T07:10:28.927Z,21.60
2017-11-26T07:12:55.835Z,23.42
2017-11-26T07:15:22.701Z,23.25
2017-11-26T07:17:49.587Z,24.05
2017-11-26T07:20:16.422Z,21.35
2017-11-26T07:22:43.256Z,24.27
2017-11-26T07:25:10.146Z,22.00
2017-11-26T07:27:36.989Z,21.60
2017-11-26T07:30:03.833Z,21.50
2017-11-26T07:32:30.680Z,23.83
2017-11-26T07:34:57.520Z,20.77
2017-11-26T07:37:24.677Z,21.48
2017-11-26T07:39:51.512Z,27.70
2017-11-26T07:42:18.334Z,22.53
2017-11-26T07:44:45.194Z,26.10
2017-11-26T07:47:12.042Z,23.45
2017-11-26T07:49:38.950Z,23.73
2017-11-26T07:52:05.807Z,22.35
2017-11-26T07:54:32.701Z,23.05
2017-11-26T07:56:59.524Z,23.52
2017-11-26T07:59:26.348Z,21.10
2017-11-26T08:01:53.202Z,23.25
2017-11-26T08:04:20.063Z,24.75
2017-11-26T08:06:46.896Z,23.80
2017-11-26T08:09:13.794Z,23.33
2017-11-26T08:11:40.671Z,22.92
2017-11-26T08:14:07.497Z,23.17
2017-11-26T08:16:34.614Z,22.83
2017-11-26T08:19:01.440Z,24.45
2017-11-26T08:21:28.309Z,24.12
2017-11-26T08:23:55.155Z,24.40
2017-11-26T08:26:21.972Z,25.33
2017-11-26T08:28:48.784Z,24.42
2017-11-26T08:31:15.665Z,24.67
2017-11-26T08:33:43.169Z,24.80
2017-11-26T08:36:10.349Z,25.75
2017-11-26T08:38:37.230Z,26.70
2017-11-26T08:41:04.103Z,23.30
2017-11-26T08:43:30.957Z,25.67
2017-11-26T08:45:57.845Z,25.23
2017-11-26T08:48:24.708Z,26.35
2017-11-26T08:50:51.582Z,28.08
2017-11-26T08:53:18.460Z,25.52
2017-11-26T08:55:45.321Z,29.48
2017-11-26T08:58:12.178Z,23.85
2017-11-26T09:00:39.393Z,29.30
2017-11-26T09:03:06.462Z,24.83
2017-11-26T09:05:33.294Z,25.30
2017-11-26T09:08:00.433Z,26.03
2017-11-26T09:10:27.598Z,24.25
2017-11-26T09:12:54.526Z,27.05
2017-11-26T09:15:21.415Z,25.88
2017-11-26T09:17:48.626Z,25.45
2017-11-26T09:20:15.487Z,25.27
2017-11-26T09:22:42.572Z,26.30
2017-11-26T09:25:09.665Z,23.62
2017-11-26T09:27:36.513Z,24.30
2017-11-26T09:30:03.658Z,25.35
2017-11-26T09:32:30.497Z,28.00
2017-11-26T09:34:57.355Z,26.70
2017-11-26T09:37:24.217Z,25.90
2017-11-26T09:39:51.280Z,29.95
2017-11-26T09:42:18.152Z,27.03
2017-11-26T09:44:45.058Z,26.57
2017-11-26T09:47:12.173Z,27.17
2017-11-26T09:49:39.050Z,25.95
2017-11-26T09:52:05.934Z,25.93
2017-11-26T09:54:32.794Z,24.80
2017-11-26T09:56:59.618Z,25.87
2017-11-26T09:59:26.491Z,24.48
2017-11-26T10:01:53.361Z,25.17
2017-11-26T10:04:20.179Z,26.90
2017-11-26T10:06:47.070Z,23.02
2017-11-26T10:09:13.900Z,24.17
2017-11-26T10:11:40.771Z,26.75
2017-11-26T10:14:07.728Z,27.20
2017-11-26T10:16:34.653Z,28.00
2017-11-26T10:19:01.526Z,25.20
2017-11-26T10:21:28.414Z,22.10
2017-11-26T10:23:55.241Z,27.20
2017-11-26T10:26:22.380Z,28.48
2017-11-26T10:28:49.271Z,33.40
2017-11-26T10:31:16.165Z,24.67
2017-11-26T10:33:43.271Z,27.83
2017-11-26T10:36:10.138Z,25.73
2017-11-26T10:38:36.969Z,22.40
2017-11-26T10:41:03.850Z,22.58
2017-11-26T10:43:30.735Z,24.23
2017-11-26T10:45:57.618Z,26.27
2017-11-26T10:48:24.522Z,30.00
2017-11-26T10:50:51.430Z,24.55
2017-11-26T10:53:18.293Z,20.98
2017-11-26T10:55:45.144Z,22.77
2017-11-26T10:58:12.053Z,21.58
2017-11-26T11:00:39.212Z,22.50
2017-11-26T11:03:06.102Z,21.50
2017-11-26T11:05:33.300Z,22.95
2017-11-26T11:08:00.464Z,20.60
2017-11-26T11:10:27.337Z,29.30
2017-11-26T11:12:54.455Z,21.90
2017-11-26T11:15:21.342Z,19.70
2017-11-26T11:17:48.181Z,21.62
2017-11-26T11:20:15.067Z,19.95
2017-11-26T11:22:42.233Z,19.60
2017-11-26T11:25:09.048Z,22.92
2017-11-26T11:27:35.962Z,21.75
2017-11-26T11:30:02.821Z,23.33
2017-11-26T11:32:30.013Z,16.33
2017-11-26T11:34:57.167Z,16.23
2017-11-26T11:37:24.030Z,18.27
2017-11-26T11:39:50.880Z,20.60
2017-11-26T11:42:17.770Z,18.40
2017-11-26T11:44:44.636Z,19.08
2017-11-26T11:47:11.484Z,15.32
2017-11-26T11:49:38.353Z,16.20
2017-11-26T11:52:05.178Z,14.90
2017-11-26T11:54:32.098Z,18.33
2017-11-26T11:56:59.020Z,13.50
2017-11-26T11:59:25.935Z,14.30
2017-11-26T12:01:53.008Z,20.95
2017-11-26T12:04:19.914Z,13.30
2017-11-26T12:06:47.197Z,14.50
2017-11-26T12:09:14.303Z,12.40
2017-11-26T12:11:42.036Z,15.83
2017-11-26T12:14:18.845Z,13.40
2017-11-26T12:16:45.732Z,13.23
2017-11-26T12:19:12.564Z,10.68
2017-11-26T12:21:39.367Z,13.65
2017-11-26T12:24:06.217Z,13.62
2017-11-26T12:26:33.028Z,18.02
2017-11-26T12:28:59.820Z,13.15
2017-11-26T12:31:26.668Z,13.00
2017-11-26T12:33:53.517Z,14.67
2017-11-26T12:36:21.176Z,14.65
2017-11-26T12:38:48.021Z,15.73
2017-11-26T12:41:14.834Z,13.50
2017-11-26T12:43:41.641Z,15.68
2017-11-26T12:46:08.456Z,10.52
2017-11-26T12:48:35.261Z,13.30
2017-11-26T12:51:02.051Z,12.55
2017-11-26T12:53:28.896Z,30.35
2017-11-26T12:55:55.713Z,16.55
2017-11-26T12:58:22.824Z,12.45
2017-11-26T13:00:49.689Z,14.75
2017-11-26T13:03:16.521Z,12.40
2017-11-26T13:05:43.384Z,13.57
2017-11-26T13:08:10.219Z,15.02
2017-11-26T13:10:37.013Z,12.75
2017-11-26T13:13:03.873Z,14.87
2017-11-26T13:15:30.741Z,13.02
2017-11-26T13:17:57.567Z,11.93
2017-11-26T13:20:24.368Z,14.20
2017-11-26T13:22:51.203Z,14.77
2017-11-26T13:25:18.310Z,17.67
2017-11-26T13:27:45.137Z,13.30
2017-11-26T13:30:11.985Z,11.65
2017-11-26T13:32:38.828Z,14.60
2017-11-26T13:35:05.644Z,13.88
2017-11-26T13:37:32.744Z,14.52
2017-11-26T13:39:59.552Z,12.82
2017-11-26T13:42:26.372Z,13.85
2017-11-26T13:44:53.256Z,12.30
2017-11-26T13:47:20.411Z,12.10
2017-11-26T13:49:47.228Z,27.23
2017-11-26T13:52:14.059Z,12.20
2017-11-26T13:54:40.864Z,12.13
2017-11-26T13:57:07.712Z,14.35
2017-11-26T13:59:34.568Z,12.55
2017-11-26T14:02:01.409Z,14.20
2017-11-26T14:04:28.208Z,11.90
2017-11-26T14:06:55.047Z,13.57
2017-11-26T14:09:21.848Z,15.75
2017-11-26T14:11:48.701Z,12.88
2017-11-26T14:14:15.581Z,12.32
2017-11-26T14:16:42.444Z,12.93
2017-11-26T14:19:09.301Z,10.93
2017-11-26T14:21:36.169Z,14.35
2017-11-26T14:24:03.035Z,11.43
2017-11-26T14:26:29.900Z,11.10
2017-11-26T14:28:56.749Z,12.05
2017-11-26T14:31:23.569Z,13.27
2017-11-26T14:33:50.409Z,12.32
2017-11-26T14:36:17.215Z,13.05
2017-11-26T14:38:44.041Z,11.40
2017-11-26T14:41:10.897Z,11.32
2017-11-26T14:43:37.737Z,14.48
2017-11-26T14:46:04.558Z,15.30
2017-11-26T14:48:31.364Z,13.32
2017-11-26T14:50:58.218Z,11.55
2017-11-26T14:53:25.011Z,14.90
2017-11-26T14:55:51.873Z,13.65
2017-11-26T14:58:18.752Z,13.90
2017-11-26T15:00:45.570Z,15.35
2017-11-26T15:03:12.421Z,13.88
2017-11-26T15:05:39.288Z,14.07
2017-11-26T15:08:06.084Z,14.68
2017-11-26T15:10:32.947Z,13.93
2017-11-26T15:12:59.804Z,11.18
2017-11-26T15:15:26.666Z,11.40
2017-11-26T15:17:53.516Z,11.70
2017-11-26T15:20:20.369Z,11.90
2017-11-26T15:22:47.183Z,14.60
2017-11-26T15:25:14.007Z,12.00
2017-11-26T15:27:40.848Z,12.47
2017-11-26T15:30:07.709Z,12.00
2017-11-26T15:32:34.519Z,13.05
2017-11-26T15:35:01.587Z,12.45
2017-11-26T15:37:28.388Z,11.43
2017-11-26T15:39:55.215Z,18.15
2017-11-26T15:42:22.064Z,12.10
2017-11-26T15:44:48.901Z,12.23
2017-11-26T15:47:15.742Z,12.18
2017-11-26T15:49:42.560Z,12.40
2017-11-26T15:52:09.367Z,12.93
2017-11-26T15:54:36.203Z,10.10
2017-11-26T15:57:03.024Z,11.90
2017-11-26T15:59:29.816Z,12.45
2017-11-26T16:01:56.640Z,18.70
2017-11-26T16:04:23.460Z,21.97
2017-11-26T16:06:50.292Z,21.45
2017-11-26T16:09:17.090Z,16.83
2017-11-26T16:11:43.930Z,28.48
2017-11-26T16:14:10.764Z,12.07
2017-11-26T16:16:37.587Z,13.30
2017-11-26T16:19:04.425Z,13.70
2017-11-26T16:21:31.244Z,25.35
2017-11-26T16:23:58.085Z,16.30
2017-11-26T16:26:25.268Z,16.27
2017-11-26T16:28:52.108Z,12.50
2017-11-26T16:31:18.944Z,11.90
2017-11-26T16:33:45.827Z,17.62
2017-11-26T16:36:12.658Z,12.07
2017-11-26T16:38:39.484Z,16.77
2017-11-26T16:41:06.344Z,16.17
2017-11-26T16:43:33.135Z,14.23
2017-11-26T16:45:59.973Z,11.85
2017-11-26T16:48:26.787Z,13.43
2017-11-26T16:50:53.598Z,13.27
2017-11-26T16:53:20.445Z,15.50
2017-11-26T16:55:47.316Z,28.25
2017-11-26T16:58:14.178Z,14.30
2017-11-26T17:00:40.987Z,14.30
2017-11-26T17:03:07.884Z,16.52
2017-11-26T17:05:34.742Z,15.57
2017-11-26T17:08:01.591Z,14.80
2017-11-26T17:10:28.450Z,16.40
2017-11-26T17:12:55.325Z,15.33
2017-11-26T17:15:22.117Z,15.07
2017-11-26T17:17:48.985Z,13.50
2017-11-26T17:20:15.880Z,14.50
2017-11-26T17:22:42.697Z,14.43
2017-11-26T17:25:09.864Z,13.88
2017-11-26T17:27:36.713Z,15.38
2017-11-26T17:30:03.532Z,13.90
2017-11-26T17:32:30.688Z,15.70
2017-11-26T17:34:57.566Z,12.37
2017-11-26T17:37:24.464Z,14.43
2017-11-26T17:39:51.316Z,16.40
2017-11-26T17:42:18.162Z,16.20
2017-11-26T17:44:45.323Z,12.27
2017-11-26T17:47:12.171Z,15.85
2017-11-26T17:49:39.034Z,15.50
2017-11-26T17:52:05.892Z,13.43
2017-11-26T17:54:32.779Z,13.55
2017-11-26T17:56:59.602Z,16.40
2017-11-26T17:59:26.419Z,13.57
2017-11-26T18:01:53.296Z,13.25
2017-11-26T18:04:20.140Z,15.85
2017-11-26T18:06:46.945Z,13.80
2017-11-26T18:09:13.821Z,13.27
2017-11-26T18:11:40.603Z,12.90
2017-11-26T18:14:07.384Z,13.40
2017-11-26T18:16:34.211Z,11.95
2017-11-26T18:19:01.033Z,13.73
2017-11-26T18:21:28.064Z,13.68
2017-11-26T18:23:54.909Z,14.90
2017-11-26T18:26:21.703Z,13.15
2017-11-26T18:28:48.535Z,13.05
2017-11-26T18:31:15.339Z,13.07
2017-11-26T18:33:42.161Z,13.20
2017-11-26T18:36:08.948Z,15.05
2017-11-26T18:38:35.780Z,14.70
2017-11-26T18:41:02.569Z,14.70
2017-11-26T18:43:29.395Z,19.23
2017-11-26T18:45:56.225Z,14.00
2017-11-26T18:48:23.053Z,17.20
2017-11-26T18:50:49.843Z,12.60
2017-11-26T18:53:16.721Z,14.10
2017-11-26T18:55:43.540Z,13.23
2017-11-26T18:58:10.353Z,12.43
2017-11-26T19:00:37.194Z,16.95
2017-11-26T19:03:04.303Z,13.07
2017-11-26T19:05:31.108Z,14.93
2017-11-26T19:07:57.915Z,13.00
2017-11-26T19:10:24.736Z,12.75
2017-11-26T19:12:51.544Z,15.07
2017-11-26T19:15:18.611Z,13.30
2017-11-26T19:19:00.333Z,13.57
2017-11-26T19:21:27.182Z,11.75
2017-11-26T19:23:53.990Z,15.55
2017-11-26T19:26:20.807Z,12.05
2017-11-26T19:28:47.644Z,15.63
2017-11-26T19:31:14.435Z,13.20
2017-11-26T19:33:41.215Z,13.18
2017-11-26T19:36:08.056Z,12.67
2017-11-26T19:38:34.865Z,13.97
2017-11-26T19:41:01.690Z,13.32
2017-11-26T19:43:28.528Z,12.80
2017-11-26T19:45:55.322Z,12.63
2017-11-26T19:48:22.120Z,12.82
2017-11-26T19:50:49.272Z,13.32
2017-11-26T19:53:16.109Z,10.27
2017-11-26T19:55:42.937Z,19.30
2017-11-26T19:58:09.752Z,12.80
2017-11-26T20:00:36.853Z,15.27
2017-11-26T20:03:03.712Z,15.25
2017-11-26T20:05:30.523Z,13.07
2017-11-26T20:07:57.348Z,14.40
2017-11-26T20:10:24.427Z,16.02
2017-11-26T20:12:51.243Z,13.18
2017-11-26T20:15:18.027Z,12.20
2017-11-26T20:17:44.848Z,13.85
2017-11-26T20:20:11.680Z,12.40
2017-11-26T20:22:38.493Z,11.50
2017-11-26T20:25:05.284Z,16.58
2017-11-26T20:27:32.129Z,15.02
2017-11-26T20:29:58.923Z,18.00
2017-11-26T20:32:25.756Z,13.93
2017-11-26T20:34:52.568Z,14.82
2017-11-26T20:37:19.384Z,12.20
2017-11-26T20:39:46.171Z,20.02
2017-11-26T20:42:12.976Z,14.50
2017-11-26T20:44:39.785Z,16.23
2017-11-26T20:47:06.673Z,13.52
2017-11-26T20:49:33.518Z,14.25
2017-11-26T20:52:00.303Z,14.10
2017-11-26T20:54:27.137Z,11.48
2017-11-26T20:56:53.977Z,13.52
2017-11-26T20:59:20.837Z,15.10
2017-11-26T21:01:47.615Z,12.40
2017-11-26T21:04:14.432Z,12.67
2017-11-26T21:06:41.244Z,12.27
2017-11-26T21:09:08.035Z,15.98
2017-11-26T21:11:35.195Z,13.15
2017-11-26T21:14:02.013Z,11.70
2017-11-26T21:16:28.828Z,13.68
2017-11-26T21:18:55.682Z,17.12
2017-11-26T21:21:22.532Z,14.85
2017-11-26T21:23:49.364Z,15.02
2017-11-26T21:26:16.179Z,14.73
2017-11-26T21:28:42.966Z,14.20
2017-11-26T21:31:09.760Z,17.03
2017-11-26T21:33:36.567Z,14.45
2017-11-26T21:36:03.388Z,12.88
2017-11-26T21:38:30.176Z,14.60
2017-11-26T21:40:57.024Z,14.98
2017-11-26T21:43:23.833Z,12.82
2017-11-26T21:45:50.630Z,11.25
2017-11-26T21:48:17.460Z,11.85
2017-11-26T21:50:44.239Z,14.47
2017-11-26T21:53:11.060Z,14.75
2017-11-26T21:55:37.909Z,17.52
2017-11-26T21:58:04.961Z,13.35
2017-11-26T22:00:31.739Z,12.75
2017-11-26T22:02:58.594Z,12.15
2017-11-26T22:05:25.752Z,13.82
2017-11-26T22:07:52.928Z,16.12
2017-11-26T22:10:19.728Z,18.87
2017-11-26T22:12:46.549Z,18.40
2017-11-26T22:15:13.342Z,12.93
2017-11-26T22:17:40.174Z,14.07
2017-11-26T22:20:07.016Z,15.45
2017-11-26T22:22:34.160Z,12.35
2017-11-26T22:25:01.321Z,12.82
2017-11-26T22:27:28.139Z,15.90
2017-11-26T22:29:54.918Z,13.27
2017-11-26T22:32:21.777Z,15.15
2017-11-26T22:34:48.552Z,12.07
2017-11-26T22:37:15.342Z,15.40
2017-11-26T22:39:42.146Z,15.93
2017-11-26T22:42:08.964Z,11.67
2017-11-26T22:44:35.739Z,17.73
2017-11-26T22:47:02.551Z,13.85
2017-11-26T22:49:29.335Z,15.65
2017-11-26T22:51:56.160Z,12.80
2017-11-26T22:54:23.000Z,14.70
2017-11-26T22:56:49.785Z,16.00
2017-11-26T22:59:16.605Z,12.25
2017-11-26T23:01:43.414Z,13.30
2017-11-26T23:04:10.210Z,15.40
2017-11-26T23:06:37.040Z,14.65
2017-11-26T23:09:03.913Z,16.67
2017-11-26T23:11:30.975Z,12.95
2017-11-26T23:13:57.765Z,13.80
2017-11-26T23:16:24.587Z,12.05
2017-11-26T23:18:51.372Z,13.80
2017-11-26T23:21:18.192Z,11.68
2017-11-26T23:23:44.991Z,10.70
2017-11-26T23:26:11.783Z,15.57
2017-11-26T23:28:38.928Z,16.37
2017-11-26T23:31:05.736Z,13.90
2017-11-26T23:33:32.520Z,12.05
2017-11-26T23:35:59.307Z,15.10
2017-11-26T23:38:26.133Z,12.68
2017-11-26T23:40:52.948Z,14.77
2017-11-26T23:43:19.765Z,16.37
2017-11-26T23:45:46.571Z,13.17
2017-11-26T23:48:13.360Z,14.07
2017-11-26T23:50:40.195Z,13.48
2017-11-26T23:53:07.003Z,12.68
2017-11-26T23:55:34.100Z,13.70
2017-11-26T23:58:01.156Z,18.25
